Sainte Genevieve, Missouri
Current Conditions -  °F | °C
As of 2:55 AM on Wednesday 26 Nov 2014 (Local Time) from KSAR Reporting Station
Clear Clear  
Wind Chill: 19°   Ceiling: Unl
Heat Index: 27°   Visibility: 10mi
Dew Point: 24°   Wind: 7mph
Humidity: 91%   Direction: 130°SE
Pressure: 30.13"   Gusts: NA
Location:  37.98°N, 90.04°W
Report Text: KSAR 260855Z AUTO 13006KT 10SM CLR M03/M04 A3013 RMK AO2 T10301043
Loading
Personal Weather Stations






























Interactive Weather Map New forecast layout! Learn more

10-Day Weather Forecast

Advertisements
Track Severe Weather on mobile